Belgrade, ME (04917)

4:31 AM EDT on July 08, 2015 (GMT -0400)
Belgrade Road | | Change Station
CLOSE
Current Station
Personal Weather Station
Location: Sidney, ME
Elevation: 285 ft
Nearby Weather Stations

Elev 285 ft 44.41 °N, 69.82 °W | Updated 5 minutes ago

Fog
Fog
70.3 °F
Feels Like 70.3 °F
N
3.0
Wind Variable Wind from SW
Gusts 4.0 mph

Today
High -- | Low -- °F
--% Chance of Precip.
Yesterday
High -- | Low -- °F
Precip. -- in
5:03 AM 8:25 PM
Waning Gibbous, 56% visible
Pressure 29.83 in
Visibility 0.8 miles
Clouds
Dew Point 69 °F
Humidity 96%
Rainfall 0.00 in
Snow Depth Not available.
UV Not available.
Pollen 4.30 out of 12
Air Quality Not available.
Flu Activity Not available.
METAR KAUG 080753Z AUTO 18007KT 3/4SM BR VV002 20/19 A2983 RMK AO2 SLP101 T02000194

More Conditions Fewer Conditions

Pressure 29.83 in
Visibility 0.8 miles
Clouds
Dew Point 69 °F
Humidity 96%
Rainfall 0.00 in
Snow Depth Not available.
UV Not available.
Pollen 4.30 out of 12
Air Quality Not available.
Flu Activity Not available.
METAR KAUG 080753Z AUTO 18007KT 3/4SM BR VV002 20/19 A2983 RMK AO2 SLP101 T02000194

More Conditions Fewer Conditions

10-Day Weather Forecast

×

Almanac

Astronomy

Jul. 08, 2015 Rise Set
Actual Time
Civil Twilight
Nautical Twilight
Astronomical Twilight
Moon
Length of Visible Light
Length of Day
Tomorrow will be .
, % of the Moon is Illuminated

Today's Extremes

State Highs State Lows

Community

WunderPhotos

Upload Photos

1,836,087 photos uploaded!

WunderBlogs® & News

Nearby

Air Quality

  Air Quality AQ Index Pollutant
Not available.

Snow Depth

Station Depth Elevation

Earthquake Activity

City Distance Mag. Time & Date
Minimum magnitude displayed is 2.5.

Coastal Water Temperatures

Place Temperature

Stations

Nearby Weather Stations

Station Location Temp. Windchill Dew Point Humidity Wind Precip. Elev Updated Type